sensor_id;sensor_type;location;lat;lon;timestamp;P1;durP1;ratioP1;P2;durP2;ratioP2
71696;SDS011;59528;59.082;37.926;2022-11-15T00:02:09;20.47;;;8.10;;
71696;SDS011;59528;59.082;37.926;2022-11-15T00:04:53;13.20;;;5.00;;
71696;SDS011;59528;59.082;37.926;2022-11-15T00:07:37;9.07;;;3.70;;
71696;SDS011;59528;59.082;37.926;2022-11-15T00:10:22;7.47;;;3.03;;
71696;SDS011;59528;59.082;37.926;2022-11-15T00:13:07;7.07;;;2.97;;
71696;SDS011;59528;59.082;37.926;2022-11-15T00:15:51;3.27;;;1.97;;
71696;SDS011;59528;59.082;37.926;2022-11-15T00:18:35;5.23;;;2.03;;
71696;SDS011;59528;59.082;37.926;2022-11-15T00:21:20;4.07;;;1.60;;
71696;SDS011;59528;59.082;37.926;2022-11-15T00:24:05;4.63;;;1.30;;
71696;SDS011;59528;59.082;37.926;2022-11-15T00:26:49;4.67;;;1.30;;
71696;SDS011;59528;59.082;37.926;2022-11-15T00:29:33;6.37;;;1.57;;
71696;SDS011;59528;59.082;37.926;2022-11-15T00:32:18;3.87;;;1.30;;
71696;SDS011;59528;59.082;37.926;2022-11-15T00:35:02;5.90;;;1.00;;
71696;SDS011;59528;59.082;37.926;2022-11-15T00:37:46;6.13;;;1.33;;
71696;SDS011;59528;59.082;37.926;2022-11-15T00:40:31;2.50;;;0.80;;
71696;SDS011;59528;59.082;37.926;2022-11-15T00:43:15;3.10;;;1.00;;
71696;SDS011;59528;59.082;37.926;2022-11-15T00:45:59;6.83;;;1.33;;
71696;SDS011;59528;59.082;37.926;2022-11-15T00:48:43;4.47;;;1.20;;
71696;SDS011;59528;59.082;37.926;2022-11-15T00:51:28;6.17;;;1.10;;
71696;SDS011;59528;59.082;37.926;2022-11-15T00:54:12;4.63;;;1.20;;
71696;SDS011;59528;59.082;37.926;2022-11-15T00:56:57;2.67;;;0.93;;
71696;SDS011;59528;59.082;37.926;2022-11-15T00:59:44;3.83;;;1.03;;
71696;SDS011;59528;59.082;37.926;2022-11-15T01:02:28;4.33;;;1.40;;
71696;SDS011;59528;59.082;37.926;2022-11-15T01:05:12;1.50;;;0.80;;
71696;SDS011;59528;59.082;37.926;2022-11-15T01:07:57;6.27;;;1.20;;
71696;SDS011;59528;59.082;37.926;2022-11-15T01:10:41;3.47;;;1.20;;
71696;SDS011;59528;59.082;37.926;2022-11-15T01:13:25;4.60;;;1.03;;
71696;SDS011;59528;59.082;37.926;2022-11-15T01:16:13;4.57;;;1.20;;
71696;SDS011;59528;59.082;37.926;2022-11-15T01:18:58;3.30;;;1.33;;
71696;SDS011;59528;59.082;37.926;2022-11-15T01:21:42;3.57;;;1.07;;
71696;SDS011;59528;59.082;37.926;2022-11-15T01:24:26;4.73;;;1.20;;
71696;SDS011;59528;59.082;37.926;2022-11-15T01:27:10;4.80;;;1.60;;
71696;SDS011;59528;59.082;37.926;2022-11-15T01:29:54;12.30;;;4.93;;
71696;SDS011;59528;59.082;37.926;2022-11-15T01:32:37;13.37;;;5.43;;
71696;SDS011;59528;59.082;37.926;2022-11-15T01:35:22;12.40;;;5.23;;
71696;SDS011;59528;59.082;37.926;2022-11-15T01:38:09;13.30;;;5.67;;
71696;SDS011;59528;59.082;37.926;2022-11-15T01:40:53;14.17;;;4.57;;
71696;SDS011;59528;59.082;37.926;2022-11-15T01:43:36;10.27;;;4.20;;
71696;SDS011;59528;59.082;37.926;2022-11-15T01:49:17;9.23;;;3.53;;
71696;SDS011;59528;59.082;37.926;2022-11-15T01:52:03;9.80;;;3.67;;
71696;SDS011;59528;59.082;37.926;2022-11-15T01:54:48;7.73;;;3.00;;
71696;SDS011;59528;59.082;37.926;2022-11-15T01:57:34;7.37;;;2.73;;
71696;SDS011;59528;59.082;37.926;2022-11-15T02:00:18;7.13;;;3.10;;
71696;SDS011;59528;59.082;37.926;2022-11-15T02:03:02;5.83;;;2.17;;
71696;SDS011;59528;59.082;37.926;2022-11-15T02:05:49;5.60;;;2.30;;
71696;SDS011;59528;59.082;37.926;2022-11-15T02:08:33;5.73;;;2.30;;
71696;SDS011;59528;59.082;37.926;2022-11-15T02:11:18;7.23;;;1.90;;
71696;SDS011;59528;59.082;37.926;2022-11-15T02:14:02;4.20;;;1.50;;
71696;SDS011;59528;59.082;37.926;2022-11-15T02:34:55;4.43;;;1.37;;
71696;SDS011;59528;59.082;37.926;2022-11-15T02:38:04;4.70;;;1.37;;
71696;SDS011;59528;59.082;37.926;2022-11-15T02:46:43;3.10;;;1.43;;
71696;SDS011;59528;59.082;37.926;2022-11-15T02:49:48;2.97;;;1.40;;
71696;SDS011;59528;59.082;37.926;2022-11-15T02:52:33;6.50;;;1.50;;
71696;SDS011;59528;59.082;37.926;2022-11-15T02:55:28;3.90;;;1.30;;
71696;SDS011;59528;59.082;37.926;2022-11-15T03:06:58;2.90;;;1.30;;
71696;SDS011;59528;59.082;37.926;2022-11-15T03:12:36;3.93;;;1.40;;
71696;SDS011;59528;59.082;37.926;2022-11-15T03:15:27;7.00;;;1.30;;
71696;SDS011;59528;59.082;37.926;2022-11-15T03:18:13;4.60;;;1.67;;
71696;SDS011;59528;59.082;37.926;2022-11-15T03:21:03;3.63;;;1.30;;
71696;SDS011;59528;59.082;37.926;2022-11-15T03:23:48;16.53;;;8.03;;
71696;SDS011;59528;59.082;37.926;2022-11-15T03:26:35;20.10;;;8.97;;
71696;SDS011;59528;59.082;37.926;2022-11-15T03:29:22;19.47;;;8.43;;
71696;SDS011;59528;59.082;37.926;2022-11-15T03:32:18;17.20;;;8.73;;
71696;SDS011;59528;59.082;37.926;2022-11-15T03:35:05;14.07;;;5.33;;
71696;SDS011;59528;59.082;37.926;2022-11-15T03:40:41;8.37;;;3.60;;
71696;SDS011;59528;59.082;37.926;2022-11-15T03:43:46;8.30;;;2.40;;
71696;SDS011;59528;59.082;37.926;2022-11-15T03:46:37;5.93;;;2.27;;
71696;SDS011;59528;59.082;37.926;2022-11-15T03:49:25;7.57;;;2.13;;
71696;SDS011;59528;59.082;37.926;2022-11-15T03:52:11;6.53;;;2.20;;
71696;SDS011;59528;59.082;37.926;2022-11-15T03:54:55;5.40;;;1.90;;
71696;SDS011;59528;59.082;37.926;2022-11-15T03:57:40;6.60;;;2.37;;
71696;SDS011;59528;59.082;37.926;2022-11-15T04:00:24;6.53;;;2.43;;
71696;SDS011;59528;59.082;37.926;2022-11-15T04:03:11;4.37;;;2.00;;
71696;SDS011;59528;59.082;37.926;2022-11-15T04:06:20;6.13;;;2.00;;
71696;SDS011;59528;59.082;37.926;2022-11-15T04:09:05;5.73;;;2.40;;
71696;SDS011;59528;59.082;37.926;2022-11-15T04:11:49;6.10;;;2.20;;
71696;SDS011;59528;59.082;37.926;2022-11-15T04:14:33;5.10;;;2.40;;
71696;SDS011;59528;59.082;37.926;2022-11-15T04:17:17;6.07;;;2.47;;
71696;SDS011;59528;59.082;37.926;2022-11-15T04:20:02;5.33;;;2.10;;
71696;SDS011;59528;59.082;37.926;2022-11-15T04:23:06;4.57;;;1.80;;
71696;SDS011;59528;59.082;37.926;2022-11-15T04:41:11;3.83;;;1.77;;
71696;SDS011;59528;59.082;37.926;2022-11-15T04:43:55;4.43;;;1.73;;
71696;SDS011;59528;59.082;37.926;2022-11-15T04:46:39;3.53;;;1.53;;
71696;SDS011;59528;59.082;37.926;2022-11-15T04:49:23;5.60;;;2.00;;
71696;SDS011;59528;59.082;37.926;2022-11-15T04:52:08;5.87;;;1.90;;
71696;SDS011;59528;59.082;37.926;2022-11-15T04:54:52;8.03;;;1.93;;
71696;SDS011;59528;59.082;37.926;2022-11-15T04:57:37;6.27;;;2.73;;
71696;SDS011;59528;59.082;37.926;2022-11-15T05:00:21;5.10;;;1.73;;
71696;SDS011;59528;59.082;37.926;2022-11-15T05:03:06;5.93;;;1.90;;
71696;SDS011;59528;59.082;37.926;2022-11-15T05:06:08;3.57;;;1.67;;
71696;SDS011;59528;59.082;37.926;2022-11-15T05:08:53;2.77;;;1.80;;
71696;SDS011;59528;59.082;37.926;2022-11-15T05:11:37;8.13;;;1.93;;
71696;SDS011;59528;59.082;37.926;2022-11-15T05:14:21;4.30;;;1.60;;
71696;SDS011;59528;59.082;37.926;2022-11-15T05:17:05;5.40;;;2.60;;
71696;SDS011;59528;59.082;37.926;2022-11-15T05:19:49;6.80;;;2.00;;
71696;SDS011;59528;59.082;37.926;2022-11-15T05:22:36;6.40;;;2.47;;
71696;SDS011;59528;59.082;37.926;2022-11-15T05:25:21;5.57;;;2.07;;
71696;SDS011;59528;59.082;37.926;2022-11-15T05:28:05;6.23;;;2.20;;
71696;SDS011;59528;59.082;37.926;2022-11-15T05:30:50;8.07;;;2.70;;
71696;SDS011;59528;59.082;37.926;2022-11-15T05:33:34;5.60;;;2.07;;
71696;SDS011;59528;59.082;37.926;2022-11-15T05:36:29;4.63;;;2.13;;
71696;SDS011;59528;59.082;37.926;2022-11-15T05:39:15;7.90;;;2.30;;
71696;SDS011;59528;59.082;37.926;2022-11-15T05:42:00;5.27;;;2.50;;
71696;SDS011;59528;59.082;37.926;2022-11-15T05:44:47;5.70;;;1.90;;
71696;SDS011;59528;59.082;37.926;2022-11-15T05:47:32;8.77;;;2.67;;
71696;SDS011;59528;59.082;37.926;2022-11-15T05:50:17;7.03;;;2.27;;
71696;SDS011;59528;59.082;37.926;2022-11-15T05:53:01;7.27;;;2.57;;
71696;SDS011;59528;59.082;37.926;2022-11-15T05:55:46;8.63;;;2.90;;
71696;SDS011;59528;59.082;37.926;2022-11-15T05:58:33;5.30;;;2.20;;
71696;SDS011;59528;59.082;37.926;2022-11-15T06:01:17;9.03;;;2.50;;
71696;SDS011;59528;59.082;37.926;2022-11-15T06:04:02;7.07;;;2.80;;
71696;SDS011;59528;59.082;37.926;2022-11-15T06:06:47;4.47;;;2.70;;
71696;SDS011;59528;59.082;37.926;2022-11-15T06:09:31;4.20;;;2.80;;
71696;SDS011;59528;59.082;37.926;2022-11-15T06:12:16;8.77;;;2.97;;
71696;SDS011;59528;59.082;37.926;2022-11-15T06:15:00;7.80;;;3.23;;
71696;SDS011;59528;59.082;37.926;2022-11-15T06:17:45;7.40;;;3.10;;
71696;SDS011;59528;59.082;37.926;2022-11-15T06:20:29;7.93;;;2.70;;
71696;SDS011;59528;59.082;37.926;2022-11-15T06:23:13;9.80;;;2.87;;
71696;SDS011;59528;59.082;37.926;2022-11-15T06:25:58;9.93;;;3.23;;
71696;SDS011;59528;59.082;37.926;2022-11-15T06:28:43;11.47;;;3.37;;
71696;SDS011;59528;59.082;37.926;2022-11-15T06:31:27;14.43;;;7.30;;
71696;SDS011;59528;59.082;37.926;2022-11-15T06:34:11;23.03;;;8.73;;
71696;SDS011;59528;59.082;37.926;2022-11-15T06:36:55;22.10;;;8.40;;
71696;SDS011;59528;59.082;37.926;2022-11-15T06:39:40;16.20;;;8.03;;
71696;SDS011;59528;59.082;37.926;2022-11-15T06:42:24;12.83;;;6.30;;
71696;SDS011;59528;59.082;37.926;2022-11-15T06:45:11;13.63;;;6.97;;
71696;SDS011;59528;59.082;37.926;2022-11-15T06:47:55;22.37;;;9.63;;
71696;SDS011;59528;59.082;37.926;2022-11-15T06:50:39;21.17;;;9.73;;
71696;SDS011;59528;59.082;37.926;2022-11-15T06:53:24;22.83;;;11.57;;
71696;SDS011;59528;59.082;37.926;2022-11-15T06:56:08;28.23;;;12.23;;
71696;SDS011;59528;59.082;37.926;2022-11-15T06:58:52;24.37;;;12.30;;
71696;SDS011;59528;59.082;37.926;2022-11-15T07:01:37;23.83;;;11.27;;
71696;SDS011;59528;59.082;37.926;2022-11-15T07:04:24;19.97;;;8.40;;
71696;SDS011;59528;59.082;37.926;2022-11-15T07:07:07;15.73;;;7.63;;
71696;SDS011;59528;59.082;37.926;2022-11-15T07:09:52;14.00;;;6.57;;
71696;SDS011;59528;59.082;37.926;2022-11-15T07:12:36;11.23;;;5.80;;
71696;SDS011;59528;59.082;37.926;2022-11-15T07:15:22;8.97;;;4.80;;
71696;SDS011;59528;59.082;37.926;2022-11-15T07:18:06;9.70;;;4.83;;
71696;SDS011;59528;59.082;37.926;2022-11-15T07:20:50;12.73;;;4.27;;
71696;SDS011;59528;59.082;37.926;2022-11-15T07:23:36;7.47;;;3.90;;
71696;SDS011;59528;59.082;37.926;2022-11-15T07:26:21;11.40;;;4.33;;
71696;SDS011;59528;59.082;37.926;2022-11-15T07:29:05;8.70;;;3.30;;
71696;SDS011;59528;59.082;37.926;2022-11-15T07:31:49;6.33;;;3.23;;
71696;SDS011;59528;59.082;37.926;2022-11-15T07:34:34;9.50;;;3.17;;
71696;SDS011;59528;59.082;37.926;2022-11-15T07:37:18;9.73;;;3.00;;
71696;SDS011;59528;59.082;37.926;2022-11-15T07:40:02;7.13;;;2.53;;
71696;SDS011;59528;59.082;37.926;2022-11-15T07:42:46;7.43;;;2.70;;
71696;SDS011;59528;59.082;37.926;2022-11-15T07:45:40;5.43;;;2.90;;
71696;SDS011;59528;59.082;37.926;2022-11-15T07:48:24;6.97;;;3.63;;
71696;SDS011;59528;59.082;37.926;2022-11-15T07:51:12;7.03;;;3.20;;
71696;SDS011;59528;59.082;37.926;2022-11-15T07:53:57;9.30;;;3.03;;
71696;SDS011;59528;59.082;37.926;2022-11-15T07:56:41;9.23;;;3.70;;
71696;SDS011;59528;59.082;37.926;2022-11-15T07:59:26;7.07;;;3.20;;
71696;SDS011;59528;59.082;37.926;2022-11-15T08:02:10;10.47;;;3.70;;
71696;SDS011;59528;59.082;37.926;2022-11-15T08:04:54;10.07;;;4.33;;
71696;SDS011;59528;59.082;37.926;2022-11-15T08:07:39;9.73;;;4.57;;
71696;SDS011;59528;59.082;37.926;2022-11-15T08:10:24;10.93;;;4.50;;
71696;SDS011;59528;59.082;37.926;2022-11-15T08:13:09;12.23;;;4.80;;
71696;SDS011;59528;59.082;37.926;2022-11-15T08:15:57;9.73;;;3.93;;
71696;SDS011;59528;59.082;37.926;2022-11-15T08:18:41;11.17;;;4.47;;
71696;SDS011;59528;59.082;37.926;2022-11-15T08:21:25;11.60;;;4.53;;
71696;SDS011;59528;59.082;37.926;2022-11-15T08:24:09;9.10;;;4.33;;
71696;SDS011;59528;59.082;37.926;2022-11-15T08:26:53;11.43;;;4.50;;
71696;SDS011;59528;59.082;37.926;2022-11-15T08:29:38;11.40;;;4.63;;
71696;SDS011;59528;59.082;37.926;2022-11-15T08:32:22;10.97;;;4.70;;
71696;SDS011;59528;59.082;37.926;2022-11-15T08:35:06;11.13;;;4.20;;
71696;SDS011;59528;59.082;37.926;2022-11-15T08:37:52;14.70;;;4.87;;
71696;SDS011;59528;59.082;37.926;2022-11-15T08:40:36;12.10;;;4.33;;
71696;SDS011;59528;59.082;37.926;2022-11-15T08:43:21;11.87;;;4.27;;
71696;SDS011;59528;59.082;37.926;2022-11-15T08:46:05;9.63;;;3.93;;
71696;SDS011;59528;59.082;37.926;2022-11-15T08:48:49;10.00;;;4.00;;
71696;SDS011;59528;59.082;37.926;2022-11-15T08:51:33;10.13;;;3.30;;
71696;SDS011;59528;59.082;37.926;2022-11-15T08:54:18;7.10;;;3.90;;
71696;SDS011;59528;59.082;37.926;2022-11-15T08:57:02;6.83;;;3.70;;
71696;SDS011;59528;59.082;37.926;2022-11-15T08:59:46;9.83;;;3.10;;
71696;SDS011;59528;59.082;37.926;2022-11-15T09:02:31;10.17;;;3.80;;
71696;SDS011;59528;59.082;37.926;2022-11-15T09:05:15;7.10;;;3.60;;
71696;SDS011;59528;59.082;37.926;2022-11-15T09:07:59;7.83;;;3.40;;
71696;SDS011;59528;59.082;37.926;2022-11-15T09:10:44;9.50;;;3.87;;
71696;SDS011;59528;59.082;37.926;2022-11-15T09:13:28;8.50;;;3.87;;
71696;SDS011;59528;59.082;37.926;2022-11-15T09:16:12;12.70;;;4.17;;
71696;SDS011;59528;59.082;37.926;2022-11-15T09:18:59;9.17;;;3.63;;
71696;SDS011;59528;59.082;37.926;2022-11-15T09:21:43;7.67;;;2.80;;
71696;SDS011;59528;59.082;37.926;2022-11-15T09:24:27;5.67;;;2.87;;
71696;SDS011;59528;59.082;37.926;2022-11-15T09:27:11;5.27;;;3.30;;
71696;SDS011;59528;59.082;37.926;2022-11-15T09:29:57;5.20;;;2.83;;
71696;SDS011;59528;59.082;37.926;2022-11-15T09:32:41;7.50;;;3.37;;
71696;SDS011;59528;59.082;37.926;2022-11-15T09:35:25;5.60;;;3.30;;
71696;SDS011;59528;59.082;37.926;2022-11-15T09:38:09;7.33;;;3.20;;
71696;SDS011;59528;59.082;37.926;2022-11-15T09:40:57;7.87;;;3.10;;
71696;SDS011;59528;59.082;37.926;2022-11-15T09:49:43;4.93;;;2.60;;
71696;SDS011;59528;59.082;37.926;2022-11-15T09:52:18;4.37;;;2.50;;
71696;SDS011;59528;59.082;37.926;2022-11-15T09:54:46;5.20;;;2.70;;
71696;SDS011;59528;59.082;37.926;2022-11-15T09:57:13;5.23;;;2.97;;
71696;SDS011;59528;59.082;37.926;2022-11-15T10:04:51;6.17;;;2.80;;
71696;SDS011;59528;59.082;37.926;2022-11-15T10:09:48;6.67;;;3.10;;
71696;SDS011;59528;59.082;37.926;2022-11-15T10:12:14;7.17;;;3.20;;
71696;SDS011;59528;59.082;37.926;2022-11-15T10:14:40;6.77;;;3.10;;
71696;SDS011;59528;59.082;37.926;2022-11-15T10:19:47;6.17;;;2.97;;
71696;SDS011;59528;59.082;37.926;2022-11-15T10:22:21;5.90;;;2.63;;
71696;SDS011;59528;59.082;37.926;2022-11-15T10:24:49;6.90;;;2.60;;
71696;SDS011;59528;59.082;37.926;2022-11-15T10:27:16;9.90;;;2.80;;
71696;SDS011;59528;59.082;37.926;2022-11-15T10:29:46;7.57;;;2.70;;
71696;SDS011;59528;59.082;37.926;2022-11-15T10:32:13;7.53;;;2.53;;
71696;SDS011;59528;59.082;37.926;2022-11-15T10:34:39;7.83;;;2.30;;
71696;SDS011;59528;59.082;37.926;2022-11-15T10:37:05;5.83;;;2.23;;
71696;SDS011;59528;59.082;37.926;2022-11-15T10:39:31;5.23;;;2.50;;
71696;SDS011;59528;59.082;37.926;2022-11-15T10:42:05;5.07;;;2.30;;
71696;SDS011;59528;59.082;37.926;2022-11-15T10:44:43;6.80;;;2.57;;
71696;SDS011;59528;59.082;37.926;2022-11-15T10:47:28;5.60;;;2.50;;
71696;SDS011;59528;59.082;37.926;2022-11-15T10:52:21;5.13;;;1.90;;
71696;SDS011;59528;59.082;37.926;2022-11-15T10:54:56;5.67;;;2.17;;
71696;SDS011;59528;59.082;37.926;2022-11-15T10:57:23;5.43;;;2.03;;
71696;SDS011;59528;59.082;37.926;2022-11-15T10:59:57;6.77;;;2.50;;
71696;SDS011;59528;59.082;37.926;2022-11-15T11:02:28;5.67;;;2.30;;
71696;SDS011;59528;59.082;37.926;2022-11-15T11:04:55;5.77;;;2.43;;
71696;SDS011;59528;59.082;37.926;2022-11-15T11:07:22;6.33;;;2.23;;
71696;SDS011;59528;59.082;37.926;2022-11-15T11:09:56;6.33;;;2.80;;
71696;SDS011;59528;59.082;37.926;2022-11-15T11:12:33;6.13;;;2.70;;
71696;SDS011;59528;59.082;37.926;2022-11-15T11:14:59;6.30;;;2.80;;
71696;SDS011;59528;59.082;37.926;2022-11-15T11:27:43;4.33;;;2.10;;
71696;SDS011;59528;59.082;37.926;2022-11-15T11:40:32;5.10;;;1.67;;
71696;SDS011;59528;59.082;37.926;2022-11-15T11:43:04;5.10;;;2.53;;
71696;SDS011;59528;59.082;37.926;2022-11-15T11:50:26;4.23;;;2.30;;
71696;SDS011;59528;59.082;37.926;2022-11-15T11:58:04;8.40;;;3.60;;
71696;SDS011;59528;59.082;37.926;2022-11-15T12:00:31;7.13;;;2.73;;
71696;SDS011;59528;59.082;37.926;2022-11-15T12:08:14;4.93;;;2.83;;
71696;SDS011;59528;59.082;37.926;2022-11-15T12:10:40;5.60;;;2.77;;
71696;SDS011;59528;59.082;37.926;2022-11-15T12:13:11;5.13;;;2.43;;
71696;SDS011;59528;59.082;37.926;2022-11-15T12:15:48;7.30;;;2.70;;
71696;SDS011;59528;59.082;37.926;2022-11-15T12:18:16;9.03;;;2.53;;
71696;SDS011;59528;59.082;37.926;2022-11-15T12:21:04;8.60;;;2.90;;
71696;SDS011;59528;59.082;37.926;2022-11-15T12:23:30;5.23;;;2.70;;
71696;SDS011;59528;59.082;37.926;2022-11-15T12:31:01;7.27;;;2.80;;
71696;SDS011;59528;59.082;37.926;2022-11-15T12:33:31;8.53;;;3.20;;
71696;SDS011;59528;59.082;37.926;2022-11-15T12:35:57;9.10;;;2.90;;
71696;SDS011;59528;59.082;37.926;2022-11-15T12:41:16;5.70;;;2.90;;
71696;SDS011;59528;59.082;37.926;2022-11-15T12:43:43;10.77;;;3.03;;
71696;SDS011;59528;59.082;37.926;2022-11-15T12:46:18;7.17;;;2.90;;
71696;SDS011;59528;59.082;37.926;2022-11-15T12:48:47;13.23;;;3.10;;
71696;SDS011;59528;59.082;37.926;2022-11-15T12:51:13;8.97;;;3.20;;
71696;SDS011;59528;59.082;37.926;2022-11-15T12:53:38;7.43;;;3.37;;
71696;SDS011;59528;59.082;37.926;2022-11-15T12:58:43;13.00;;;4.67;;
71696;SDS011;59528;59.082;37.926;2022-11-15T13:01:12;8.33;;;4.10;;
71696;SDS011;59528;59.082;37.926;2022-11-15T13:04:24;7.20;;;2.93;;
71696;SDS011;59528;59.082;37.926;2022-11-15T13:11:58;10.77;;;3.53;;
71696;SDS011;59528;59.082;37.926;2022-11-15T13:17:03;18.80;;;7.30;;
71696;SDS011;59528;59.082;37.926;2022-11-15T13:19:37;13.03;;;6.30;;
71696;SDS011;59528;59.082;37.926;2022-11-15T13:22:10;14.47;;;6.23;;
71696;SDS011;59528;59.082;37.926;2022-11-15T13:24:54;14.60;;;5.60;;
71696;SDS011;59528;59.082;37.926;2022-11-15T13:27:20;14.40;;;5.63;;
71696;SDS011;59528;59.082;37.926;2022-11-15T13:29:46;10.73;;;4.30;;
71696;SDS011;59528;59.082;37.926;2022-11-15T13:32:15;12.73;;;4.80;;
71696;SDS011;59528;59.082;37.926;2022-11-15T13:34:44;11.47;;;4.70;;
71696;SDS011;59528;59.082;37.926;2022-11-15T13:37:33;12.13;;;4.20;;
71696;SDS011;59528;59.082;37.926;2022-11-15T13:42:43;10.23;;;3.90;;
71696;SDS011;59528;59.082;37.926;2022-11-15T13:45:11;8.60;;;2.93;;
71696;SDS011;59528;59.082;37.926;2022-11-15T13:47:38;6.07;;;3.27;;
71696;SDS011;59528;59.082;37.926;2022-11-15T13:50:04;6.63;;;2.80;;
71696;SDS011;59528;59.082;37.926;2022-11-15T13:52:35;6.73;;;2.60;;
71696;SDS011;59528;59.082;37.926;2022-11-15T13:57:29;5.47;;;2.40;;
71696;SDS011;59528;59.082;37.926;2022-11-15T13:59:59;6.10;;;2.43;;
71696;SDS011;59528;59.082;37.926;2022-11-15T14:02:27;4.73;;;2.17;;
71696;SDS011;59528;59.082;37.926;2022-11-15T14:07:38;4.23;;;2.20;;
71696;SDS011;59528;59.082;37.926;2022-11-15T14:12:51;6.20;;;2.20;;
71696;SDS011;59528;59.082;37.926;2022-11-15T14:15:24;5.40;;;2.00;;
71696;SDS011;59528;59.082;37.926;2022-11-15T14:17:50;5.27;;;2.10;;
71696;SDS011;59528;59.082;37.926;2022-11-15T14:22:52;9.53;;;4.47;;
71696;SDS011;59528;59.082;37.926;2022-11-15T14:25:19;14.23;;;6.90;;
71696;SDS011;59528;59.082;37.926;2022-11-15T14:30:49;10.97;;;4.83;;
71696;SDS011;59528;59.082;37.926;2022-11-15T14:35:53;8.27;;;4.43;;
71696;SDS011;59528;59.082;37.926;2022-11-15T14:38:21;8.03;;;3.67;;
71696;SDS011;59528;59.082;37.926;2022-11-15T14:40:46;10.67;;;3.90;;
71696;SDS011;59528;59.082;37.926;2022-11-15T14:43:12;7.37;;;3.20;;
71696;SDS011;59528;59.082;37.926;2022-11-15T14:45:38;5.33;;;3.10;;
71696;SDS011;59528;59.082;37.926;2022-11-15T14:48:05;6.23;;;2.80;;
71696;SDS011;59528;59.082;37.926;2022-11-15T14:50:31;6.33;;;2.73;;
71696;SDS011;59528;59.082;37.926;2022-11-15T14:52:57;5.83;;;2.33;;
71696;SDS011;59528;59.082;37.926;2022-11-15T14:55:29;7.40;;;2.80;;
71696;SDS011;59528;59.082;37.926;2022-11-15T14:57:57;4.33;;;2.10;;
71696;SDS011;59528;59.082;37.926;2022-11-15T15:00:23;4.70;;;2.60;;
71696;SDS011;59528;59.082;37.926;2022-11-15T15:02:48;6.37;;;2.33;;
71696;SDS011;59528;59.082;37.926;2022-11-15T15:05:17;4.23;;;2.10;;
71696;SDS011;59528;59.082;37.926;2022-11-15T15:07:43;5.17;;;1.80;;
71696;SDS011;59528;59.082;37.926;2022-11-15T15:10:09;3.70;;;1.77;;
71696;SDS011;59528;59.082;37.926;2022-11-15T15:12:35;4.47;;;2.00;;
71696;SDS011;59528;59.082;37.926;2022-11-15T15:15:00;4.23;;;2.00;;
71696;SDS011;59528;59.082;37.926;2022-11-15T15:17:26;7.63;;;3.30;;
71696;SDS011;59528;59.082;37.926;2022-11-15T15:19:51;9.27;;;3.17;;
71696;SDS011;59528;59.082;37.926;2022-11-15T15:22:18;9.67;;;4.73;;
71696;SDS011;59528;59.082;37.926;2022-11-15T15:24:44;11.20;;;5.67;;
71696;SDS011;59528;59.082;37.926;2022-11-15T15:27:10;11.10;;;5.00;;
71696;SDS011;59528;59.082;37.926;2022-11-15T15:29:36;9.80;;;4.13;;
71696;SDS011;59528;59.082;37.926;2022-11-15T15:32:01;9.93;;;3.50;;
71696;SDS011;59528;59.082;37.926;2022-11-15T15:34:27;4.80;;;2.90;;
71696;SDS011;59528;59.082;37.926;2022-11-15T15:39:37;4.83;;;2.77;;
71696;SDS011;59528;59.082;37.926;2022-11-15T15:42:03;5.00;;;2.40;;
71696;SDS011;59528;59.082;37.926;2022-11-15T15:44:29;6.87;;;2.47;;
71696;SDS011;59528;59.082;37.926;2022-11-15T15:46:54;4.93;;;2.77;;
71696;SDS011;59528;59.082;37.926;2022-11-15T15:49:20;3.40;;;2.10;;
71696;SDS011;59528;59.082;37.926;2022-11-15T15:51:45;4.43;;;1.80;;
71696;SDS011;59528;59.082;37.926;2022-11-15T15:54:11;5.27;;;1.90;;
71696;SDS011;59528;59.082;37.926;2022-11-15T15:56:36;6.07;;;2.03;;
71696;SDS011;59528;59.082;37.926;2022-11-15T15:59:02;6.93;;;1.97;;
71696;SDS011;59528;59.082;37.926;2022-11-15T16:01:27;5.57;;;1.90;;
71696;SDS011;59528;59.082;37.926;2022-11-15T16:03:53;4.73;;;1.80;;
71696;SDS011;59528;59.082;37.926;2022-11-15T16:06:25;3.80;;;1.83;;
71696;SDS011;59528;59.082;37.926;2022-11-15T16:08:57;3.83;;;2.13;;
71696;SDS011;59528;59.082;37.926;2022-11-15T16:11:23;5.07;;;2.00;;
71696;SDS011;59528;59.082;37.926;2022-11-15T16:13:48;4.03;;;1.87;;
71696;SDS011;59528;59.082;37.926;2022-11-15T16:16:14;5.20;;;1.67;;
71696;SDS011;59528;59.082;37.926;2022-11-15T16:18:40;3.83;;;1.60;;
71696;SDS011;59528;59.082;37.926;2022-11-15T16:21:05;2.17;;;1.30;;
71696;SDS011;59528;59.082;37.926;2022-11-15T16:23:31;3.77;;;1.80;;
71696;SDS011;59528;59.082;37.926;2022-11-15T16:25:56;4.33;;;1.93;;
71696;SDS011;59528;59.082;37.926;2022-11-15T16:28:26;4.13;;;2.10;;
71696;SDS011;59528;59.082;37.926;2022-11-15T16:33:27;4.47;;;2.37;;
71696;SDS011;59528;59.082;37.926;2022-11-15T16:35:55;6.73;;;3.03;;
71696;SDS011;59528;59.082;37.926;2022-11-15T16:38:21;5.07;;;2.53;;
71696;SDS011;59528;59.082;37.926;2022-11-15T16:40:46;6.20;;;3.47;;
71696;SDS011;59528;59.082;37.926;2022-11-15T16:43:12;6.77;;;3.10;;
71696;SDS011;59528;59.082;37.926;2022-11-15T16:45:38;9.20;;;3.90;;
71696;SDS011;59528;59.082;37.926;2022-11-15T16:48:04;4.90;;;2.80;;
71696;SDS011;59528;59.082;37.926;2022-11-15T16:50:30;4.77;;;2.33;;
71696;SDS011;59528;59.082;37.926;2022-11-15T16:53:00;5.23;;;2.80;;
71696;SDS011;59528;59.082;37.926;2022-11-15T16:55:27;4.67;;;2.50;;
71696;SDS011;59528;59.082;37.926;2022-11-15T16:57:56;5.07;;;2.10;;
71696;SDS011;59528;59.082;37.926;2022-11-15T17:00:26;5.47;;;2.57;;
71696;SDS011;59528;59.082;37.926;2022-11-15T17:02:52;9.83;;;3.27;;
71696;SDS011;59528;59.082;37.926;2022-11-15T17:05:19;5.30;;;2.57;;
71696;SDS011;59528;59.082;37.926;2022-11-15T17:07:45;9.87;;;4.10;;
71696;SDS011;59528;59.082;37.926;2022-11-15T17:10:13;11.10;;;4.70;;
71696;SDS011;59528;59.082;37.926;2022-11-15T17:12:39;15.63;;;6.57;;
71696;SDS011;59528;59.082;37.926;2022-11-15T17:15:04;16.63;;;5.80;;
71696;SDS011;59528;59.082;37.926;2022-11-15T17:17:30;9.97;;;4.40;;
71696;SDS011;59528;59.082;37.926;2022-11-15T17:19:56;10.97;;;4.60;;
71696;SDS011;59528;59.082;37.926;2022-11-15T17:22:22;12.93;;;5.03;;
71696;SDS011;59528;59.082;37.926;2022-11-15T17:24:50;10.47;;;4.33;;
71696;SDS011;59528;59.082;37.926;2022-11-15T17:27:16;12.00;;;4.27;;
71696;SDS011;59528;59.082;37.926;2022-11-15T17:29:41;12.33;;;4.83;;
71696;SDS011;59528;59.082;37.926;2022-11-15T17:32:07;11.37;;;4.03;;
71696;SDS011;59528;59.082;37.926;2022-11-15T17:34:33;11.17;;;4.30;;
71696;SDS011;59528;59.082;37.926;2022-11-15T17:36:59;15.53;;;4.30;;
71696;SDS011;59528;59.082;37.926;2022-11-15T17:39:25;16.83;;;5.53;;
71696;SDS011;59528;59.082;37.926;2022-11-15T17:41:53;22.80;;;6.00;;
71696;SDS011;59528;59.082;37.926;2022-11-15T17:44:19;13.20;;;5.90;;
71696;SDS011;59528;59.082;37.926;2022-11-15T17:46:44;21.47;;;6.33;;
71696;SDS011;59528;59.082;37.926;2022-11-15T17:49:10;17.63;;;4.90;;
71696;SDS011;59528;59.082;37.926;2022-11-15T17:51:35;18.53;;;5.73;;
71696;SDS011;59528;59.082;37.926;2022-11-15T17:54:01;18.10;;;5.60;;
71696;SDS011;59528;59.082;37.926;2022-11-15T17:56:27;17.57;;;5.17;;
71696;SDS011;59528;59.082;37.926;2022-11-15T17:58:53;22.03;;;5.60;;
71696;SDS011;59528;59.082;37.926;2022-11-15T18:01:26;22.03;;;6.13;;
71696;SDS011;59528;59.082;37.926;2022-11-15T18:03:52;23.20;;;6.20;;
71696;SDS011;59528;59.082;37.926;2022-11-15T18:06:19;24.83;;;7.03;;